Time,TemperatureF,DewpointF,PressureIn,WindDirection,WindDirectionDegrees,WindSpeedMPH,WindSpeedGustMPH,Humidity,HourlyPrecipIn,Conditions,Clouds,dailyrainin,SoftwareType,DateUTC
2013-02-05 00:02:00,51.0,51.0,30.10,WSW,255,0.0,0.0,100,0.00,,,0.00,,2013-02-05 05:02:00,
2013-02-05 00:11:00,51.0,51.0,30.10,WSW,255,0.0,0.0,100,0.00,,,0.00,,2013-02-05 05:11:00,
2013-02-05 00:22:00,51.0,51.0,30.10,WSW,255,0.0,0.0,100,0.00,,,0.00,,2013-02-05 05:22:00,
2013-02-05 00:32:00,50.0,50.0,30.09,WSW,255,0.0,3.0,100,0.00,,,0.00,,2013-02-05 05:32:00,
2013-02-05 00:42:00,50.0,50.0,30.09,WSW,255,0.0,3.0,100,0.00,,,0.00,,2013-02-05 05:42:00,
2013-02-05 00:52:00,51.0,51.0,30.09,WSW,255,0.0,1.0,100,0.00,,,0.00,,2013-02-05 05:52:00,
2013-02-05 01:02:00,50.0,50.0,30.07,WSW,255,0.0,0.0,100,0.00,,,0.00,,2013-02-05 06:02:00,
2013-02-05 01:11:00,50.0,50.0,30.07,WSW,255,0.0,0.0,100,0.00,,,0.00,,2013-02-05 06:11:00,
2013-02-05 01:21:00,51.0,51.0,30.08,WSW,255,0.0,1.0,100,0.00,,,0.00,,2013-02-05 06:21:00,
2013-02-05 01:32:00,49.0,49.0,30.07,WSW,255,0.0,0.0,100,0.00,,,0.00,,2013-02-05 06:32:00,
2013-02-05 01:42:00,49.0,49.0,30.07,WSW,255,0.0,0.0,100,0.00,,,0.00,,2013-02-05 06:42:00,
2013-02-05 01:52:00,49.0,49.0,30.05,WSW,255,0.0,0.0,100,0.00,,,0.00,,2013-02-05 06:52:00,
2013-02-05 02:01:00,49.0,49.0,30.07,WSW,255,0.0,0.0,100,0.00,,,0.00,,2013-02-05 07:01:00,
2013-02-05 02:11:00,49.0,49.0,30.07,WSW,255,0.0,0.0,100,0.00,,,0.00,,2013-02-05 07:11:00,
2013-02-05 02:22:00,48.0,48.0,30.06,WSW,255,0.0,0.0,100,0.00,,,0.00,,2013-02-05 07:22:00,
2013-02-05 02:32:00,49.0,49.0,30.04,WSW,255,0.0,2.0,100,0.00,,,0.00,,2013-02-05 07:32:00,
2013-02-05 02:42:00,49.0,49.0,30.04,WSW,255,0.0,2.0,100,0.00,,,0.00,,2013-02-05 07:42:00,
2013-02-05 02:52:00,50.0,50.0,30.03,SSW,193,2.0,2.0,100,0.00,,,0.00,,2013-02-05 07:52:00,
2013-02-05 03:01:00,51.0,51.0,30.02,SSW,192,0.0,1.0,100,0.00,,,0.00,,2013-02-05 08:01:00,
2013-02-05 03:11:00,51.0,51.0,30.02,SSW,192,0.0,1.0,100,0.00,,,0.00,,2013-02-05 08:11:00,
2013-02-05 03:21:00,50.0,50.0,30.03,SSW,192,0.0,1.0,100,0.00,,,0.00,,2013-02-05 08:21:00,
2013-02-05 03:31:00,49.0,49.0,30.03,SSW,192,0.0,0.0,100,0.00,,,0.00,,2013-02-05 08:31:00,
2013-02-05 03:42:00,49.0,49.0,30.03,SSW,192,0.0,0.0,100,0.00,,,0.00,,2013-02-05 08:42:00,
2013-02-05 03:52:00,49.0,49.0,30.02,SSW,192,0.0,0.0,100,0.00,,,0.00,,2013-02-05 08:52:00,
2013-02-05 04:02:00,49.0,49.0,30.01,SSW,192,0.0,0.0,100,0.00,,,0.00,,2013-02-05 09:02:00,
2013-02-05 04:11:00,50.0,50.0,30.01,SSW,192,0.0,0.0,100,0.00,,,0.00,,2013-02-05 09:11:00,
2013-02-05 04:21:00,50.0,50.0,30.01,SSW,192,0.0,0.0,100,0.00,,,0.00,,2013-02-05 09:21:00,
2013-02-05 04:32:00,49.0,49.0,30.01,SSW,192,0.0,0.0,100,0.00,,,0.00,,2013-02-05 09:32:00,
2013-02-05 04:42:00,49.0,49.0,30.01,SSW,192,0.0,0.0,100,0.00,,,0.00,,2013-02-05 09:42:00,
2013-02-05 04:52:00,50.0,50.0,30.01,SSE,160,0.0,0.0,100,0.00,,,0.00,,2013-02-05 09:52:00,
2013-02-05 05:02:00,49.0,49.0,30.03,SSE,160,0.0,2.0,100,0.00,,,0.00,,2013-02-05 10:02:00,
2013-02-05 05:11:00,50.0,50.0,30.02,SSE,160,0.0,2.0,100,0.00,,,0.00,,2013-02-05 10:11:00,
2013-02-05 05:21:00,50.0,50.0,30.02,SSE,160,0.0,2.0,100,0.00,,,0.00,,2013-02-05 10:21:00,
2013-02-05 05:32:00,50.0,50.0,30.03,SSE,160,0.0,0.0,100,0.00,,,0.00,,2013-02-05 10:32:00,
2013-02-05 05:42:00,50.0,50.0,30.03,SSE,160,0.0,0.0,100,0.00,,,0.00,,2013-02-05 10:42:00,
2013-02-05 05:52:00,49.0,49.0,30.03,SSE,149,1.0,2.0,100,0.00,,,0.00,,2013-02-05 10:52:00,
2013-02-05 06:01:00,49.0,49.0,30.03,SSE,149,1.0,2.0,100,0.00,,,0.00,,2013-02-05 11:01:00,
2013-02-05 06:11:00,49.0,49.0,30.03,SSE,149,1.0,2.0,100,0.00,,,0.00,,2013-02-05 11:11:00,
2013-02-05 06:22:00,49.0,49.0,30.03,SE,137,3.0,3.0,100,0.00,,,0.00,,2013-02-05 11:22:00,
2013-02-05 06:32:00,50.0,50.0,30.03,ENE,78,2.0,3.0,100,0.00,,,0.00,,2013-02-05 11:32:00,
2013-02-05 06:42:00,50.0,50.0,30.03,ENE,78,2.0,3.0,100,0.00,,,0.00,,2013-02-05 11:42:00,
2013-02-05 06:52:00,50.0,50.0,30.03,ENE,75,1.0,2.0,100,0.00,,,0.00,,2013-02-05 11:52:00,
2013-02-05 07:01:00,50.0,50.0,30.05,ENE,73,3.0,3.0,100,0.00,,,0.00,,2013-02-05 12:01:00,
2013-02-05 07:12:00,50.0,50.0,30.05,ENE,73,3.0,3.0,100,0.00,,,0.00,,2013-02-05 12:12:00,
2013-02-05 07:22:00,50.0,50.0,30.05,ENE,68,2.0,3.0,100,0.00,,,0.00,,2013-02-05 12:22:00,
2013-02-05 07:32:00,50.0,50.0,30.06,ENE,65,1.0,3.0,100,0.00,,,0.00,,2013-02-05 12:32:00,
2013-02-05 07:42:00,50.0,50.0,30.06,ENE,65,1.0,3.0,100,0.00,,,0.00,,2013-02-05 12:42:00,
2013-02-05 07:52:00,50.0,50.0,30.07,ENE,65,0.0,0.0,100,0.00,,,0.00,,2013-02-05 12:52:00,
2013-02-05 08:02:00,51.0,51.0,30.07,ENE,65,0.0,0.0,100,0.00,,,0.00,,2013-02-05 13:02:00,
2013-02-05 08:12:00,52.0,52.0,30.08,ENE,65,2.0,3.0,100,0.00,,,0.00,,2013-02-05 13:12:00,
2013-02-05 08:22:00,52.0,52.0,30.08,ENE,65,2.0,3.0,100,0.00,,,0.00,,2013-02-05 13:22:00,
2013-02-05 08:32:00,54.0,54.0,30.08,NE,42,1.0,4.0,100,0.00,,,0.00,,2013-02-05 13:32:00,
2013-02-05 08:42:00,54.0,54.0,30.08,NE,42,1.0,4.0,100,0.00,,,0.00,,2013-02-05 13:42:00,
2013-02-05 08:52:00,55.0,55.0,30.09,NE,48,2.0,4.0,100,0.00,,,0.00,,2013-02-05 13:52:00,
2013-02-05 09:01:00,57.0,57.0,30.08,ENE,76,1.0,4.0,100,0.00,,,0.00,,2013-02-05 14:01:00,
2013-02-05 09:21:00,56.0,56.0,30.09,ENE,78,1.0,4.0,100,0.00,,,0.00,,2013-02-05 14:21:00,
2013-02-05 09:32:00,60.0,60.0,30.09,ENE,57,1.0,2.0,100,0.00,,,0.00,,2013-02-05 14:32:00,
2013-02-05 09:52:00,63.0,63.0,30.10,NE,46,4.0,5.0,100,0.00,,,0.00,,2013-02-05 14:52:00,
2013-02-05 10:02:00,65.0,65.0,30.09,NE,42,3.0,5.0,100,0.00,,,0.00,,2013-02-05 15:02:00,
2013-02-05 10:21:00,67.0,67.0,30.09,NNE,19,1.0,5.0,100,0.00,,,0.00,,2013-02-05 15:21:00,
2013-02-05 10:32:00,68.0,68.0,30.10,NNE,16,4.0,7.0,100,0.00,,,0.00,,2013-02-05 15:32:00,
2013-02-05 10:52:00,70.0,70.0,30.10,NE,56,3.0,6.0,100,0.00,,,0.00,,2013-02-05 15:52:00,
2013-02-05 11:01:00,72.0,72.0,30.10,NE,45,5.0,5.0,100,0.00,,,0.00,,2013-02-05 16:01:00,
2013-02-05 11:22:00,74.0,74.0,30.10,NE,50,3.0,4.0,100,0.00,,,0.00,,2013-02-05 16:22:00,
2013-02-05 11:32:00,75.0,75.0,30.09,East,86,1.0,3.0,100,0.00,,,0.00,,2013-02-05 16:32:00,
2013-02-05 11:52:00,76.0,76.0,30.09,SSE,154,2.0,6.0,100,0.00,,,0.00,,2013-02-05 16:52:00,
2013-02-05 12:01:00,75.0,75.0,30.09,SSE,148,4.0,10.0,100,0.00,,,0.00,,2013-02-05 17:01:00,
2013-02-05 12:22:00,75.0,75.0,30.09,SSW,209,5.0,9.0,100,0.00,,,0.00,,2013-02-05 17:22:00,
2013-02-05 12:32:00,76.0,76.0,30.09,South,171,11.0,13.0,100,0.00,,,0.00,,2013-02-05 17:32:00,
2013-02-05 12:52:00,75.0,75.0,30.07,South,174,9.0,10.0,100,0.00,,,0.00,,2013-02-05 17:52:00,
2013-02-05 13:02:00,77.0,77.0,30.07,SE,140,3.0,11.0,100,0.00,,,0.00,,2013-02-05 18:02:00,
2013-02-05 13:22:00,77.0,77.0,30.07,SSE,147,5.0,10.0,100,0.00,,,0.00,,2013-02-05 18:22:00,
2013-02-05 13:32:00,76.0,76.0,30.06,SSE,154,6.0,9.0,100,0.00,,,0.00,,2013-02-05 18:32:00,
2013-02-05 13:52:00,77.0,77.0,30.05,SSW,199,9.0,11.0,100,0.00,,,0.00,,2013-02-05 18:52:00,
2013-02-05 14:02:00,74.0,74.0,30.04,SSW,199,5.0,9.0,100,0.00,,,0.00,,2013-02-05 19:02:00,
2013-02-05 14:22:00,76.0,76.0,30.03,South,186,5.0,12.0,100,0.00,,,0.00,,2013-02-05 19:22:00,
2013-02-05 14:32:00,77.0,77.0,30.03,SSW,196,9.0,14.0,100,0.00,,,0.00,,2013-02-05 19:32:00,
2013-02-05 14:52:00,76.0,76.0,30.03,SSE,164,11.0,11.0,100,0.00,,,0.00,,2013-02-05 19:52:00,
2013-02-05 15:02:00,75.0,75.0,30.01,SSE,156,3.0,10.0,100,0.00,,,0.00,,2013-02-05 20:02:00,
2013-02-05 15:21:00,76.0,76.0,30.02,SSW,193,8.0,13.0,100,0.00,,,0.00,,2013-02-05 20:21:00,
2013-02-05 15:32:00,75.0,75.0,30.03,SSE,168,4.0,13.0,100,0.00,,,0.00,,2013-02-05 20:32:00,
2013-02-05 15:52:00,74.0,74.0,30.01,SSE,168,4.0,9.0,100,0.00,,,0.00,,2013-02-05 20:52:00,
2013-02-05 16:02:00,73.0,73.0,30.02,South,190,3.0,11.0,100,0.00,,,0.00,,2013-02-05 21:02:00,
2013-02-05 16:22:00,74.0,74.0,30.03,SSW,192,6.0,8.0,100,0.00,,,0.00,,2013-02-05 21:22:00,
2013-02-05 16:32:00,74.0,74.0,30.02,SW,218,2.0,8.0,100,0.00,,,0.00,,2013-02-05 21:32:00,
2013-02-05 16:52:00,74.0,74.0,30.03,SSE,164,3.0,7.0,100,0.00,,,0.00,,2013-02-05 21:52:00,
2013-02-05 17:01:00,72.0,72.0,30.03,South,191,4.0,7.0,100,0.00,,,0.00,,2013-02-05 22:01:00,
2013-02-05 17:22:00,71.0,71.0,30.03,SSW,207,2.0,5.0,100,0.00,,,0.00,,2013-02-05 22:22:00,
2013-02-05 17:32:00,70.0,70.0,30.03,SSW,204,4.0,6.0,100,0.00,,,0.00,,2013-02-05 22:32:00,
2013-02-05 17:52:00,68.0,68.0,30.03,SSW,199,2.0,7.0,100,0.00,,,0.00,,2013-02-05 22:52:00,
2013-02-05 18:02:00,68.0,68.0,30.02,SSW,203,2.0,4.0,100,0.00,,,0.00,,2013-02-05 23:02:00,
2013-02-05 18:22:00,69.0,69.0,30.02,SSW,203,1.0,2.0,100,0.00,,,0.00,,2013-02-05 23:22:00,
2013-02-05 18:32:00,67.0,67.0,30.03,SSW,203,1.0,2.0,100,0.00,,,0.00,,2013-02-05 23:32:00,
2013-02-05 18:52:00,66.0,66.0,30.02,SSW,203,0.0,1.0,100,0.00,,,0.00,,2013-02-05 23:52:00,
2013-02-05 19:02:00,65.0,65.0,30.02,SSW,203,0.0,0.0,100,0.00,,,0.00,,2013-02-06 00:02:00,
2013-02-05 19:12:00,65.0,65.0,30.02,SSW,203,0.0,0.0,100,0.00,,,0.00,,2013-02-06 00:12:00,
2013-02-05 19:22:00,64.0,64.0,30.02,SSW,203,0.0,0.0,100,0.00,,,0.00,,2013-02-06 00:22:00,
2013-02-05 19:32:00,64.0,64.0,30.03,SSW,203,0.0,0.0,100,0.00,,,0.00,,2013-02-06 00:32:00,
2013-02-05 19:42:00,64.0,64.0,30.03,SSW,203,0.0,0.0,100,0.00,,,0.00,,2013-02-06 00:42:00,
2013-02-05 19:52:00,63.0,63.0,30.02,SSW,203,0.0,0.0,100,0.00,,,0.00,,2013-02-06 00:52:00,
2013-02-05 20:02:00,62.0,62.0,30.03,SSW,203,0.0,0.0,100,0.00,,,0.00,,2013-02-06 01:02:00,
2013-02-05 20:12:00,62.0,62.0,30.03,SSW,203,0.0,0.0,100,0.00,,,0.00,,2013-02-06 01:12:00,
2013-02-05 20:22:00,62.0,62.0,30.03,SSW,203,0.0,0.0,100,0.00,,,0.00,,2013-02-06 01:22:00,
2013-02-05 20:32:00,62.0,62.0,30.03,SSW,203,0.0,0.0,100,0.00,,,0.00,,2013-02-06 01:32:00,
2013-02-05 20:42:00,62.0,62.0,30.03,SSW,203,0.0,0.0,100,0.00,,,0.00,,2013-02-06 01:42:00,
2013-02-05 20:53:00,62.0,62.0,30.04,SSW,203,0.0,0.0,100,0.00,,,0.00,,2013-02-06 01:53:00,
2013-02-05 21:02:00,62.0,62.0,30.04,SSW,203,0.0,0.0,100,0.00,,,0.00,,2013-02-06 02:02:00,
2013-02-05 21:11:00,62.0,62.0,30.04,SSW,203,0.0,0.0,100,0.00,,,0.00,,2013-02-06 02:11:00,
2013-02-05 21:22:00,61.0,61.0,30.05,SSW,203,0.0,0.0,100,0.00,,,0.00,,2013-02-06 02:22:00,
2013-02-05 21:32:00,61.0,61.0,30.05,SSW,203,0.0,0.0,100,0.00,,,0.00,,2013-02-06 02:32:00,
2013-02-05 21:42:00,61.0,61.0,30.05,SSW,203,0.0,0.0,100,0.00,,,0.00,,2013-02-06 02:42:00,
2013-02-05 21:52:00,60.0,60.0,30.06,SSW,203,0.0,0.0,100,0.00,,,0.00,,2013-02-06 02:52:00,
2013-02-05 22:03:00,61.0,61.0,30.06,SSW,203,0.0,0.0,100,0.00,,,0.00,,2013-02-06 03:03:00,
2013-02-05 22:12:00,61.0,61.0,30.06,SSW,203,0.0,0.0,100,0.00,,,0.00,,2013-02-06 03:12:00,
2013-02-05 22:22:00,61.0,61.0,30.04,SSW,203,0.0,0.0,100,0.00,,,0.00,,2013-02-06 03:22:00,
2013-02-05 22:32:00,60.0,60.0,30.05,SSW,203,0.0,0.0,100,0.00,,,0.00,,2013-02-06 03:32:00,
2013-02-05 22:42:00,60.0,60.0,30.05,SSW,203,0.0,0.0,100,0.00,,,0.00,,2013-02-06 03:42:00,
2013-02-05 22:53:00,60.0,60.0,30.06,SSW,203,0.0,0.0,100,0.00,,,0.00,,2013-02-06 03:53:00,
2013-02-05 23:02:00,61.0,61.0,30.05,SSW,203,0.0,0.0,100,0.00,,,0.00,,2013-02-06 04:02:00,
2013-02-05 23:11:00,61.0,61.0,30.05,SSW,203,0.0,0.0,100,0.00,,,0.00,,2013-02-06 04:11:00,
2013-02-05 23:22:00,61.0,61.0,30.04,SSW,203,0.0,0.0,100,0.00,,,0.00,,2013-02-06 04:22:00,
2013-02-05 23:32:00,61.0,61.0,30.05,SSW,203,0.0,0.0,100,0.00,,,0.00,,2013-02-06 04:32:00,
2013-02-05 23:42:00,61.0,61.0,30.05,SSW,203,0.0,0.0,100,0.00,,,0.00,,2013-02-06 04:42:00,
2013-02-05 23:52:00,61.0,61.0,30.06,SSW,203,0.0,0.0,100,0.00,,,0.00,,2013-02-06 04:52:00,